createdAt,value
2019-02-19T00:02:27.055Z,77.54
2019-02-19T00:05:17.586Z,77.79
2019-02-19T00:08:07.044Z,76.95
2019-02-19T00:10:56.957Z,75.86
2019-02-19T00:13:46.326Z,74.72
2019-02-19T00:16:36.151Z,74.17
2019-02-19T00:19:25.403Z,74.32
2019-02-19T00:22:14.838Z,73.76
2019-02-19T00:25:04.217Z,74.46
2019-02-19T00:27:53.711Z,74.88
2019-02-19T00:30:43.400Z,74.59
2019-02-19T00:33:33.034Z,74.16
2019-02-19T00:36:22.225Z,73.60
2019-02-19T00:39:12.477Z,73.88
2019-02-19T00:42:02.039Z,73.63
2019-02-19T00:44:52.059Z,73.79
2019-02-19T00:47:41.329Z,73.61
2019-02-19T00:50:30.628Z,73.21
2019-02-19T00:53:20.693Z,73.13
2019-02-19T00:56:10.357Z,73.30
2019-02-19T00:58:59.912Z,75.13
2019-02-19T01:01:49.713Z,75.37
2019-02-19T01:04:39.989Z,74.83
2019-02-19T01:07:29.801Z,74.65
2019-02-19T01:10:19.417Z,74.17
2019-02-19T01:13:11.774Z,73.75
2019-02-19T01:16:01.107Z,73.79
2019-02-19T01:18:50.455Z,73.68
2019-02-19T01:21:40.423Z,74.04
2019-02-19T01:24:29.795Z,74.43
2019-02-19T01:27:19.546Z,74.25
2019-02-19T01:30:11.484Z,73.70
2019-02-19T01:33:01.227Z,74.53
2019-02-19T01:35:50.497Z,74.79
2019-02-19T01:38:40.291Z,74.81
2019-02-19T01:41:30.202Z,74.27
2019-02-19T01:44:19.751Z,74.86
2019-02-19T01:47:17.154Z,74.93
2019-02-19T01:50:07.461Z,74.98
2019-02-19T01:52:56.581Z,75.37
2019-02-19T01:55:46.229Z,75.88
2019-02-19T01:58:35.993Z,76.10
2019-02-19T02:01:25.242Z,75.86
2019-02-19T02:04:16.262Z,75.78
2019-02-19T02:07:05.999Z,75.29
2019-02-19T02:09:55.416Z,75.90
2019-02-19T02:12:44.645Z,75.43
2019-02-19T02:15:42.298Z,75.45
2019-02-19T02:18:26.018Z,75.38
2019-02-19T02:21:15.792Z,74.79
2019-02-19T02:24:08.060Z,74.79
2019-02-19T02:26:57.614Z,74.71
2019-02-19T02:29:46.988Z,75.05
2019-02-19T02:32:36.839Z,74.96
2019-02-19T02:35:25.886Z,76.30
2019-02-19T02:38:15.313Z,76.32
2019-02-19T02:41:04.550Z,75.81
2019-02-19T02:43:54.260Z,75.51
2019-02-19T02:46:43.603Z,75.05
2019-02-19T02:49:33.089Z,74.81
2019-02-19T02:52:22.744Z,74.74
2019-02-19T02:55:12.221Z,74.05
2019-02-19T02:58:01.472Z,75.34
2019-02-19T03:00:51.064Z,75.65
2019-02-19T03:03:41.008Z,76.37
2019-02-19T03:06:41.666Z,76.19
2019-02-19T03:09:31.055Z,76.20
2019-02-19T03:12:20.505Z,76.64
2019-02-19T03:15:10.966Z,76.03
2019-02-19T03:18:00.214Z,76.40
2019-02-19T03:20:49.844Z,76.24
2019-02-19T03:23:39.457Z,75.91
2019-02-19T03:26:29.069Z,76.08
2019-02-19T03:29:18.470Z,76.05
2019-02-19T03:32:08.406Z,75.97
2019-02-19T03:34:57.537Z,76.36
2019-02-19T03:37:47.623Z,77.06
2019-02-19T03:40:37.091Z,76.72
2019-02-19T03:43:26.206Z,76.45
2019-02-19T03:46:15.443Z,76.39
2019-02-19T03:49:06.720Z,76.28
2019-02-19T03:51:56.322Z,76.18
2019-02-19T03:54:45.588Z,76.34
2019-02-19T03:57:35.137Z,77.06
2019-02-19T04:00:24.556Z,76.96
2019-02-19T04:03:16.839Z,76.30
2019-02-19T04:06:06.050Z,76.69
2019-02-19T04:08:55.433Z,76.87
2019-02-19T04:11:44.850Z,76.95
2019-02-19T04:14:34.282Z,76.78
2019-02-19T04:17:23.698Z,76.93
2019-02-19T04:20:13.867Z,76.87
2019-02-19T04:23:03.150Z,76.75
2019-02-19T04:25:52.266Z,77.04
2019-02-19T04:28:41.642Z,77.03
2019-02-19T04:31:31.825Z,76.54
2019-02-19T04:34:21.556Z,76.50
2019-02-19T04:37:10.834Z,76.35
2019-02-19T04:40:00.665Z,76.66
2019-02-19T04:42:50.059Z,77.17
2019-02-19T04:45:39.925Z,77.47
2019-02-19T04:48:29.609Z,77.94
2019-02-19T04:51:18.723Z,77.94
2019-02-19T04:54:10.829Z,77.77
2019-02-19T04:57:00.740Z,78.03
2019-02-19T05:00:01.735Z,78.31
2019-02-19T05:02:51.644Z,78.34
2019-02-19T05:05:41.415Z,78.14
2019-02-19T05:08:31.377Z,78.22
2019-02-19T05:11:20.833Z,78.17
2019-02-19T05:14:10.305Z,78.27
2019-02-19T05:16:59.563Z,78.11
2019-02-19T05:19:49.685Z,77.80
2019-02-19T05:22:39.183Z,77.79
2019-02-19T05:25:28.870Z,78.41
2019-02-19T05:28:18.532Z,78.50
2019-02-19T05:31:07.773Z,78.34
2019-02-19T05:33:57.790Z,78.00
2019-02-19T05:36:47.102Z,77.27
2019-02-19T05:39:36.899Z,78.25
2019-02-19T05:42:26.192Z,78.56
2019-02-19T05:45:16.022Z,78.94
2019-02-19T05:48:05.504Z,78.91
2019-02-19T05:50:54.936Z,78.93
2019-02-19T05:53:44.957Z,78.67
2019-02-19T05:56:34.723Z,78.38
2019-02-19T05:59:24.331Z,78.27
2019-02-19T06:02:14.272Z,78.47
2019-02-19T06:05:05.751Z,78.72
2019-02-19T06:07:54.652Z,78.71
2019-02-19T06:10:44.427Z,78.51
2019-02-19T06:13:34.350Z,78.53
2019-02-19T06:16:23.588Z,78.51
2019-02-19T06:19:13.356Z,78.34
2019-02-19T06:22:02.595Z,78.35
2019-02-19T06:24:52.482Z,78.41
2019-02-19T06:27:41.943Z,78.61
2019-02-19T06:30:31.442Z,79.09
2019-02-19T06:33:21.044Z,79.26
2019-02-19T06:36:10.305Z,78.88
2019-02-19T06:39:00.397Z,79.51
2019-02-19T06:41:50.125Z,79.08
2019-02-19T06:44:39.345Z,78.53
2019-02-19T06:47:28.781Z,79.13
2019-02-19T06:50:18.053Z,79.86
2019-02-19T06:53:07.579Z,80.95
2019-02-19T06:55:57.319Z,81.02
2019-02-19T06:58:46.702Z,80.59
2019-02-19T07:01:53.703Z,80.23
2019-02-19T07:04:48.302Z,80.01
2019-02-19T07:07:38.063Z,79.96
2019-02-19T07:10:27.284Z,80.04
2019-02-19T07:13:16.734Z,79.73
2019-02-19T07:16:06.748Z,79.68
2019-02-19T07:18:55.931Z,80.21
2019-02-19T07:21:45.141Z,80.83
2019-02-19T07:24:35.052Z,81.39
2019-02-19T07:27:24.433Z,81.99
2019-02-19T07:30:14.460Z,81.55
2019-02-19T07:33:03.618Z,82.06
2019-02-19T07:35:53.389Z,82.71
2019-02-19T07:38:42.848Z,81.80
2019-02-19T07:41:34.220Z,81.38
2019-02-19T07:44:23.760Z,80.90
2019-02-19T07:47:13.105Z,81.21
2019-02-19T07:50:13.642Z,81.58
2019-02-19T07:53:03.641Z,82.19
2019-02-19T07:55:52.935Z,81.67
2019-02-19T07:58:42.741Z,82.24
2019-02-19T08:01:32.374Z,81.90
2019-02-19T08:04:21.707Z,80.30
2019-02-19T08:07:11.877Z,78.13
2019-02-19T08:10:01.883Z,73.83
2019-02-19T08:12:51.080Z,68.50
2019-02-19T08:15:40.800Z,66.72
2019-02-19T08:18:30.709Z,64.98
2019-02-19T08:21:20.932Z,63.14
2019-02-19T08:24:10.262Z,63.49
2019-02-19T08:26:59.627Z,62.04
2019-02-19T08:29:49.042Z,61.74
2019-02-19T08:32:39.128Z,60.42
2019-02-19T08:35:28.249Z,58.33
2019-02-19T08:38:17.923Z,56.86
2019-02-19T08:41:07.190Z,56.72
2019-02-19T08:43:56.797Z,55.08
2019-02-19T08:46:46.116Z,55.00
2019-02-19T08:49:35.780Z,55.52
2019-02-19T08:52:25.177Z,54.30
2019-02-19T08:55:15.100Z,54.99
2019-02-19T08:58:04.489Z,53.92
2019-02-19T09:00:54.192Z,54.16
2019-02-19T09:03:43.797Z,53.27
2019-02-19T09:06:33.011Z,52.02
2019-02-19T09:09:22.455Z,52.73
2019-02-19T09:12:11.691Z,51.85
2019-02-19T09:15:00.899Z,50.70
2019-02-19T09:17:52.202Z,50.96
2019-02-19T09:20:43.275Z,50.54
2019-02-19T09:23:32.843Z,49.43
2019-02-19T09:26:22.405Z,50.11
2019-02-19T09:29:12.450Z,50.03
2019-02-19T09:32:01.849Z,48.73
2019-02-19T09:34:52.667Z,48.51
2019-02-19T09:37:42.927Z,48.42
2019-02-19T09:40:33.531Z,48.08
2019-02-19T09:43:23.070Z,48.93
2019-02-19T09:46:12.701Z,47.87
2019-02-19T09:49:02.148Z,48.53
2019-02-19T09:51:51.571Z,48.52
2019-02-19T09:54:41.296Z,49.24
2019-02-19T09:57:32.610Z,48.52
2019-02-19T10:00:21.117Z,48.37
2019-02-19T10:03:11.085Z,48.96
2019-02-19T10:06:01.084Z,47.06
2019-02-19T10:08:50.261Z,46.59
2019-02-19T10:11:43.259Z,46.61
2019-02-19T10:14:32.373Z,46.79
2019-02-19T10:17:21.605Z,47.54
2019-02-19T10:20:10.819Z,45.77
2019-02-19T10:23:00.461Z,46.88
2019-02-19T10:25:50.065Z,45.43
2019-02-19T10:28:39.671Z,45.11
2019-02-19T10:31:29.555Z,46.21
2019-02-19T10:34:19.364Z,45.13
2019-02-19T10:37:08.805Z,45.86
2019-02-19T10:39:58.312Z,44.15
2019-02-19T10:42:47.506Z,43.58
2019-02-19T10:45:37.338Z,43.28
2019-02-19T10:48:26.630Z,42.45
2019-02-19T10:51:16.006Z,41.25
2019-02-19T10:54:07.951Z,42.29
2019-02-19T10:56:57.788Z,42.05
2019-02-19T10:59:47.219Z,41.54
2019-02-19T11:02:36.960Z,41.37
2019-02-19T11:05:26.444Z,40.44
2019-02-19T11:08:16.082Z,41.05
2019-02-19T11:11:05.695Z,41.96
2019-02-19T11:13:54.776Z,40.34
2019-02-19T11:16:44.493Z,40.02
2019-02-19T11:19:33.740Z,40.29
2019-02-19T11:22:23.261Z,40.98
2019-02-19T11:25:13.293Z,40.71
2019-02-19T11:28:03.318Z,42.64
2019-02-19T11:30:52.901Z,41.90
2019-02-19T11:33:42.321Z,41.42
2019-02-19T11:36:32.639Z,40.23
2019-02-19T11:42:46.823Z,39.79
2019-02-19T11:45:36.324Z,38.21
2019-02-19T11:48:26.155Z,37.94
2019-02-19T11:51:15.655Z,38.11
2019-02-19T11:54:07.993Z,37.49
2019-02-19T11:56:57.346Z,37.57
2019-02-19T11:59:46.802Z,38.46
2019-02-19T12:02:35.992Z,39.09
2019-02-19T12:05:26.162Z,39.03
2019-02-19T12:08:15.615Z,37.51
2019-02-19T12:11:05.245Z,38.07
2019-02-19T12:13:54.526Z,37.47
2019-02-19T12:16:43.810Z,37.68
2019-02-19T12:19:33.376Z,38.62
2019-02-19T12:22:22.509Z,37.67
2019-02-19T12:25:12.410Z,37.35
2019-02-19T12:28:01.699Z,39.25
2019-02-19T12:30:51.304Z,37.95
2019-02-19T12:33:40.991Z,38.19
2019-02-19T12:36:30.610Z,39.18
2019-02-19T12:39:19.781Z,39.71
2019-02-19T12:42:09.033Z,39.06
2019-02-19T12:44:58.713Z,39.58
2019-02-19T12:47:48.159Z,40.16
2019-02-19T12:50:37.591Z,39.56
2019-02-19T12:53:26.904Z,39.94
2019-02-19T12:56:16.678Z,39.12
2019-02-19T12:59:08.404Z,39.18
2019-02-19T13:01:58.553Z,40.21
2019-02-19T13:04:47.743Z,40.44
2019-02-19T13:07:37.489Z,39.29
2019-02-19T13:10:27.278Z,40.08
2019-02-19T13:13:17.396Z,40.25
2019-02-19T13:16:07.730Z,39.62
2019-02-19T13:19:03.435Z,39.54
2019-02-19T13:21:50.128Z,39.05
2019-02-19T13:24:39.358Z,40.33
2019-02-19T13:27:28.772Z,39.64
2019-02-19T13:30:17.937Z,38.94
2019-02-19T13:33:07.200Z,38.75
2019-02-19T13:35:56.784Z,39.03
2019-02-19T13:38:47.561Z,38.61
2019-02-19T13:41:39.281Z,40.11
2019-02-19T13:44:29.048Z,39.41
2019-02-19T13:47:18.502Z,40.01
2019-02-19T13:50:10.792Z,40.18
2019-02-19T13:53:22.893Z,38.51
2019-02-19T13:56:12.758Z,38.49
2019-02-19T13:59:02.329Z,38.86
2019-02-19T14:01:51.825Z,40.11
2019-02-19T14:04:40.958Z,40.10
2019-02-19T14:07:30.722Z,39.77
2019-02-19T14:10:20.612Z,38.83
2019-02-19T14:13:10.482Z,38.58
2019-02-19T14:16:20.020Z,39.36
2019-02-19T14:19:28.197Z,39.31
2019-02-19T14:22:51.963Z,39.67
2019-02-19T14:25:58.804Z,39.55
2019-02-19T14:29:19.298Z,38.99
2019-02-19T14:32:45.724Z,38.65
2019-02-19T14:36:11.877Z,38.24
2019-02-19T14:39:20.134Z,39.07
2019-02-19T14:42:27.170Z,39.22
2019-02-19T14:45:34.194Z,38.68
2019-02-19T14:48:55.061Z,38.92
2019-02-19T14:52:02.245Z,38.67
2019-02-19T14:55:14.688Z,37.48
2019-02-19T14:58:25.928Z,37.50
2019-02-19T15:01:37.440Z,37.99
2019-02-19T15:04:49.081Z,37.00
2019-02-19T15:08:00.315Z,35.47
2019-02-19T15:11:14.231Z,35.17
2019-02-19T15:14:22.135Z,35.73
2019-02-19T15:17:25.947Z,35.14
2019-02-19T15:20:32.644Z,36.37
2019-02-19T15:23:42.015Z,36.29
2019-02-19T15:26:54.634Z,36.67
2019-02-19T15:30:09.296Z,38.26
2019-02-19T15:33:30.026Z,38.39
2019-02-19T15:36:46.906Z,38.74
2019-02-19T15:39:55.194Z,38.12
2019-02-19T15:43:06.653Z,38.09
2019-02-19T15:46:16.782Z,37.58
2019-02-19T15:49:47.741Z,38.34
2019-02-19T15:52:56.089Z,40.41
2019-02-19T15:56:04.214Z,41.46
2019-02-19T15:59:15.869Z,42.61
2019-02-19T16:02:22.645Z,44.53
2019-02-19T16:05:30.348Z,45.58
2019-02-19T16:08:37.609Z,46.36
2019-02-19T16:11:48.756Z,48.06
2019-02-19T16:14:51.492Z,47.67
2019-02-19T16:18:09.522Z,47.20
2019-02-19T16:21:23.867Z,48.11
2019-02-19T16:24:35.483Z,48.29
2019-02-19T16:27:49.364Z,48.72
2019-02-19T16:30:56.909Z,49.25
2019-02-19T16:34:08.510Z,50.29
2019-02-19T16:37:06.961Z,49.83
2019-02-19T16:40:04.515Z,49.92
2019-02-19T16:43:11.180Z,49.03
2019-02-19T16:46:18.650Z,49.34
2019-02-19T16:49:30.262Z,51.10
2019-02-19T16:52:30.895Z,52.47
2019-02-19T16:55:34.836Z,50.74
2019-02-19T16:58:35.287Z,51.81
2019-02-19T17:01:43.327Z,51.86
2019-02-19T17:04:51.557Z,51.84
2019-02-19T17:08:02.749Z,53.52
2019-02-19T17:11:20.433Z,53.25
2019-02-19T17:14:32.964Z,53.36
2019-02-19T17:17:34.672Z,53.09
2019-02-19T17:20:58.190Z,53.88
2019-02-19T17:24:06.581Z,53.98
2019-02-19T17:27:13.387Z,55.84
2019-02-19T17:30:22.551Z,55.86
2019-02-19T17:33:20.082Z,55.87
2019-02-19T17:36:20.259Z,55.26
2019-02-19T17:39:27.421Z,56.21
2019-02-19T17:42:31.345Z,57.09
2019-02-19T17:45:38.440Z,56.88
2019-02-19T17:48:56.315Z,56.40
2019-02-19T17:52:10.362Z,56.53
2019-02-19T17:58:53.652Z,56.32
2019-02-19T18:01:55.420Z,57.94
2019-02-19T18:04:51.782Z,58.33
2019-02-19T18:07:58.464Z,58.67
2019-02-19T18:11:04.522Z,58.67
2019-02-19T18:14:12.107Z,59.05
2019-02-19T18:17:19.167Z,57.57
2019-02-19T18:20:08.764Z,57.39
2019-02-19T18:22:58.265Z,56.91
2019-02-19T18:25:47.974Z,56.76
2019-02-19T18:28:37.239Z,55.83
2019-02-19T18:31:27.116Z,56.06
2019-02-19T18:34:16.410Z,57.22
2019-02-19T18:37:05.575Z,57.89
2019-02-19T18:39:55.006Z,57.45
2019-02-19T18:42:44.683Z,57.13
2019-02-19T18:45:34.237Z,58.71
2019-02-19T18:48:24.106Z,60.12
2019-02-19T18:51:13.726Z,59.28
2019-02-19T18:54:03.228Z,59.81
2019-02-19T18:56:53.426Z,60.81
2019-02-19T18:59:42.505Z,61.11
2019-02-19T19:02:31.942Z,61.87
2019-02-19T19:05:21.773Z,63.24
2019-02-19T19:08:11.593Z,62.35
2019-02-19T19:11:01.218Z,62.19
2019-02-19T19:13:50.870Z,61.91
2019-02-19T19:16:40.292Z,62.48
2019-02-19T19:19:29.796Z,61.97
2019-02-19T19:22:19.434Z,62.82
2019-02-19T19:25:08.855Z,62.67
2019-02-19T19:27:58.479Z,62.95
2019-02-19T19:30:47.718Z,63.57
2019-02-19T19:33:37.393Z,63.32
2019-02-19T19:36:26.563Z,63.50
2019-02-19T19:39:16.285Z,63.89
2019-02-19T19:42:06.142Z,63.72
2019-02-19T19:44:56.081Z,65.21
2019-02-19T19:47:45.608Z,64.89
2019-02-19T19:50:35.961Z,65.31
2019-02-19T19:53:25.439Z,65.40
2019-02-19T19:56:15.231Z,64.99
2019-02-19T19:59:06.249Z,64.24
2019-02-19T20:01:55.457Z,64.60
2019-02-19T20:04:45.355Z,64.71
2019-02-19T20:07:35.271Z,64.02
2019-02-19T20:10:24.925Z,64.78
2019-02-19T20:13:15.091Z,64.88
2019-02-19T20:16:05.225Z,65.04
2019-02-19T20:18:54.992Z,65.85
2019-02-19T20:21:45.798Z,66.25
2019-02-19T20:24:35.446Z,65.28
2019-02-19T20:27:25.267Z,65.03
2019-02-19T20:30:15.213Z,66.27
2019-02-19T20:33:05.353Z,66.82
2019-02-19T20:35:55.218Z,66.54
2019-02-19T20:38:44.789Z,67.03
2019-02-19T20:41:35.770Z,67.48
2019-02-19T20:44:25.666Z,66.85
2019-02-19T20:47:15.822Z,66.70
2019-02-19T20:50:05.779Z,66.77
2019-02-19T20:52:55.389Z,68.21
2019-02-19T20:55:45.094Z,67.57
2019-02-19T20:58:34.475Z,67.14
2019-02-19T21:01:28.262Z,67.53
2019-02-19T21:04:18.131Z,67.50
2019-02-19T21:07:08.345Z,67.36
2019-02-19T21:09:58.350Z,68.19
2019-02-19T21:12:48.268Z,68.48
2019-02-19T21:15:38.401Z,68.49
2019-02-19T21:18:27.774Z,68.79
2019-02-19T21:21:17.125Z,68.37
2019-02-19T21:24:09.743Z,68.13
2019-02-19T21:27:01.518Z,68.36
2019-02-19T21:29:50.994Z,68.72
2019-02-19T21:32:40.928Z,68.69
2019-02-19T21:35:30.803Z,69.09
2019-02-19T21:38:21.811Z,68.57
2019-02-19T21:41:11.697Z,69.10
2019-02-19T21:44:01.948Z,69.71
2019-02-19T21:46:51.720Z,69.91
2019-02-19T21:49:41.734Z,69.86
2019-02-19T21:52:31.199Z,70.80
2019-02-19T21:55:21.361Z,70.73
2019-02-19T21:58:10.540Z,70.12
2019-02-19T22:01:00.432Z,71.12
2019-02-19T22:03:49.702Z,71.37
2019-02-19T22:06:39.285Z,71.39
2019-02-19T22:09:28.444Z,71.10
2019-02-19T22:12:18.060Z,70.55
2019-02-19T22:15:07.498Z,70.30
2019-02-19T22:17:56.675Z,70.00
2019-02-19T22:20:51.097Z,70.54
2019-02-19T22:23:40.345Z,70.79
2019-02-19T22:26:29.860Z,71.33
2019-02-19T22:29:19.802Z,70.96
2019-02-19T22:32:09.941Z,70.87
2019-02-19T22:34:59.573Z,71.12
2019-02-19T22:37:49.160Z,71.89
2019-02-19T22:40:38.499Z,71.79
2019-02-19T22:47:03.847Z,71.50
2019-02-19T22:49:53.344Z,71.94
2019-02-19T22:52:42.573Z,71.77
2019-02-19T22:55:34.919Z,72.17
2019-02-19T22:58:24.154Z,71.50
2019-02-19T23:01:26.613Z,71.88
2019-02-19T23:04:16.082Z,71.91
2019-02-19T23:07:06.090Z,72.42
2019-02-19T23:09:55.513Z,72.11
2019-02-19T23:12:45.210Z,72.03
2019-02-19T23:15:34.625Z,72.24
2019-02-19T23:18:27.527Z,72.77
2019-02-19T23:21:17.755Z,72.94
2019-02-19T23:24:10.181Z,72.53
2019-02-19T23:26:59.542Z,72.63
2019-02-19T23:29:49.243Z,72.78
2019-02-19T23:32:38.741Z,72.34
2019-02-19T23:35:33.993Z,72.95
2019-02-19T23:38:23.206Z,72.82
2019-02-19T23:41:12.656Z,74.43
2019-02-19T23:44:02.582Z,75.17
2019-02-19T23:46:51.997Z,76.42
2019-02-19T23:49:41.589Z,77.48
2019-02-19T23:52:31.107Z,77.86
2019-02-19T23:55:20.563Z,77.45
2019-02-19T23:58:10.225Z,77.36
